Time;durP1;ratioP1;P1;durP2;ratioP2;P2;SDS_P1;SDS_P2;PMS_P1;PMS_P2;Temp;Humidity;BMP_temperature;BMP_pressure;BME280_temperature;BME280_humidity;BME280_pressure;Samples;Min_cycle;Max_cycle;Signal;HPM_P1;HPM_P2
2023/01/04 00:01:47;;;;;;;;;;;;;;;9.16;61.48;101772.97;5414101;32;46781;-67
2023/01/04 00:04:49;;;;;;;;;;;;;;;8.94;62.32;101785.41;5397933;32;34777;-66
2023/01/04 00:07:51;;;;;;;;;;;;;;;8.90;62.72;101782.84;5408120;32;35286;-90
2023/01/04 00:10:52;;;;;;;;;;;;;;;9.72;59.57;101779.28;5403407;32;35542;-67
2023/01/04 00:13:55;;;;;;;;;;;;;;;8.94;60.90;101788.03;5395806;32;34297;-67
2023/01/04 00:16:57;;;;;;;;;;;;;;;9.01;60.73;101786.22;5411572;32;34858;-92
2023/01/04 00:19:59;;;;;;;;;;;;;;;8.80;61.35;101789.06;5410204;32;34766;-68
2023/01/04 00:23:01;;;;;;;;;;;;;;;9.29;59.48;101788.56;5403371;32;34916;-68
2023/01/04 00:26:07;;;;;;;;;;;;;;;9.14;60.44;101786.97;5405010;32;35956;-66
2023/01/04 00:29:10;;;;;;;;;;;;;;;9.29;60.05;101796.44;5411466;32;34884;-67
2023/01/04 00:32:12;;;;;;;;;;;;;;;8.63;61.65;101789.22;5397782;32;35101;-67
2023/01/04 00:35:14;;;;;;;;;;;;;;;9.00;61.04;101787.09;5402587;32;35474;-67
2023/01/04 00:38:36;;;;;;;;;;;;;;;9.17;60.69;101786.94;5411265;32;34840;-68
2023/01/04 00:41:42;;;;;;;;;;;;;;;9.08;60.90;101793.16;5405440;32;34270;-67
2023/01/04 00:45:02;;;;;;;;;;;;;;;9.36;59.93;101787.59;5410503;32;37070;-68
2023/01/04 00:48:04;;;;;;;;;;;;;;;8.47;62.70;101791.09;5398652;32;34855;-67
2023/01/04 00:51:06;;;;;;;;;;;;;;;8.77;62.08;101797.84;5389201;32;35489;-67
2023/01/04 00:54:10;;;;;;;;;;;;;;;8.45;62.93;101799.87;5410652;32;34834;-89
2023/01/04 00:57:11;;;;;;;;;;;;;;;8.84;62.09;101802.13;5394144;32;34974;-92
2023/01/04 01:00:14;;;;;;;;;;;;;;;8.51;62.91;101805.06;5415089;32;34044;-90
2023/01/04 01:03:15;;;;;;;;;;;;;;;8.24;64.55;101808.69;5398247;32;35452;-67
2023/01/04 01:06:18;;;;;;;;;;;;;;;8.56;63.06;101806.72;5407769;32;45175;-91
2023/01/04 01:09:23;;;;;;;;;;;;;;;8.38;63.28;101810.38;5405701;32;35481;-92
2023/01/04 01:12:25;;;;;;;;;;;;;;;8.78;62.56;101810.06;5396390;32;34938;-75
2023/01/04 01:15:27;;;;;;;;;;;;;;;9.03;60.72;101810.69;5417667;32;35165;-66
2023/01/04 01:18:29;;;;;;;;;;;;;;;8.52;61.92;101802.41;5397638;32;34629;-91
2023/01/04 01:21:31;;;;;;;;;;;;;;;8.11;63.34;101810.53;5412350;32;35184;-75
2023/01/04 01:24:33;;;;;;;;;;;;;;;8.24;62.81;101804.31;5404664;32;34201;-91
2023/01/04 01:27:35;;;;;;;;;;;;;;;8.58;61.96;101814.59;5407509;32;36375;-65
2023/01/04 01:30:40;;;;;;;;;;;;;;;8.24;62.84;101821.78;5409353;32;35461;-90
2023/01/04 01:33:43;;;;;;;;;;;;;;;7.71;63.32;101818.59;5378992;32;34563;-92
2023/01/04 01:36:45;;;;;;;;;;;;;;;7.90;63.54;101814.16;5407892;32;35595;-67
2023/01/04 01:39:47;;;;;;;;;;;;;;;8.35;61.66;101820.88;5394709;32;44772;-93
2023/01/04 01:42:49;;;;;;;;;;;;;;;8.28;62.36;101797.31;5408905;32;35475;-67
2023/01/04 01:45:54;;;;;;;;;;;;;;;8.53;61.24;101804.16;5396997;32;35689;-90
2023/01/04 01:49:00;;;;;;;;;;;;;;;8.39;61.09;101806.03;5404364;32;35628;-68
2023/01/04 01:52:03;;;;;;;;;;;;;;;8.40;61.67;101803.37;5384004;32;35259;-90
2023/01/04 01:55:05;;;;;;;;;;;;;;;7.78;62.88;101806.34;5400278;32;34757;-68
2023/01/04 01:58:12;;;;;;;;;;;;;;;8.02;61.96;101800.97;5403603;32;34794;-67
2023/01/04 02:01:13;;;;;;;;;;;;;;;8.04;61.67;101808.81;5399285;32;34893;-67
2023/01/04 02:04:15;;;;;;;;;;;;;;;8.67;60.16;101801.41;5407220;32;34996;-67
2023/01/04 02:07:21;;;;;;;;;;;;;;;8.67;59.91;101802.28;5397508;32;45619;-90
2023/01/04 02:10:23;;;;;;;;;;;;;;;8.27;60.69;101812.19;5394191;32;34774;-67
2023/01/04 02:14:25;;;;;;;;;;;;;;;8.17;60.63;101804.38;5404617;32;34930;-90
2023/01/04 02:16:51;;;;;;;;;;;;;;;8.33;59.61;101816.50;5401057;32;44503;-92
2023/01/04 02:19:59;;;;;;;;;;;;;;;8.10;60.86;101809.66;5414634;32;35377;-76
2023/01/04 02:23:04;;;;;;;;;;;;;;;8.42;59.93;101803.34;5400989;32;35104;-67
2023/01/04 02:26:12;;;;;;;;;;;;;;;8.61;59.41;101804.94;5388754;32;37537;-68
2023/01/04 02:29:14;;;;;;;;;;;;;;;8.73;58.58;101803.13;5413368;32;35189;-90
2023/01/04 02:32:22;;;;;;;;;;;;;;;8.72;58.67;101799.63;5396304;32;34335;-89
2023/01/04 02:35:26;;;;;;;;;;;;;;;9.15;57.36;101799.22;5392903;32;44646;-67
2023/01/04 02:38:46;;;;;;;;;;;;;;;8.95;57.84;101808.16;5399455;32;34843;-90
2023/01/04 02:41:48;;;;;;;;;;;;;;;9.55;56.21;101804.88;5404650;32;44838;-67
2023/01/04 02:44:52;;;;;;;;;;;;;;;9.74;55.34;101809.00;5397960;32;35252;-67
2023/01/04 02:51:24;;;;;;;;;;;;;;;8.50;59.20;101812.06;5395561;32;34995;-93
2023/01/04 02:54:28;;;;;;;;;;;;;;;8.82;57.93;101801.28;5397545;32;44246;-66
2023/01/04 02:57:30;;;;;;;;;;;;;;;7.96;59.35;101806.25;5405775;32;34571;-68
2023/01/04 03:00:32;;;;;;;;;;;;;;;7.84;60.14;101798.47;5400269;32;35299;-67
2023/01/04 03:07:17;;;;;;;;;;;;;;;7.96;60.71;101800.16;5414015;32;34488;-90
2023/01/04 03:10:37;;;;;;;;;;;;;;;8.93;57.28;101795.94;5413886;32;44824;-91
2023/01/04 03:13:41;;;;;;;;;;;;;;;9.25;56.35;101784.22;5405786;32;34519;-67
2023/01/04 03:16:42;;;;;;;;;;;;;;;8.64;57.34;101783.97;5407203;32;35183;-67
2023/01/04 03:19:53;;;;;;;;;;;;;;;7.98;59.09;101799.25;5410490;32;34899;-68
2023/01/04 03:36:28;;;;;;;;;;;;;;;9.05;56.79;101801.06;5389902;32;45605;-67
2023/01/04 03:49:45;;;;;;;;;;;;;;;8.76;57.86;101796.09;5409531;32;34308;-67
2023/01/04 03:52:46;;;;;;;;;;;;;;;8.94;57.37;101795.03;5371938;32;44736;-91
2023/01/04 03:55:48;;;;;;;;;;;;;;;9.36;56.66;101793.72;5405790;32;35164;-91
2023/01/04 03:58:50;;;;;;;;;;;;;;;9.49;55.73;101786.56;5391011;32;34644;-67
2023/01/04 04:01:52;;;;;;;;;;;;;;;8.54;57.19;101791.91;5400387;32;34913;-68
2023/01/04 04:08:30;;;;;;;;;;;;;;;8.11;59.55;101790.47;5397855;32;35431;-91
2023/01/04 04:11:32;;;;;;;;;;;;;;;8.16;59.53;101787.81;5416280;32;35031;-67
2023/01/04 04:14:34;;;;;;;;;;;;;;;8.40;57.94;101777.19;5395338;32;35430;-68
2023/01/04 04:17:36;;;;;;;;;;;;;;;8.15;58.80;101791.31;5387556;32;34319;-91
2023/01/04 04:20:38;;;;;;;;;;;;;;;8.35;58.87;101785.91;5407924;32;35398;-91
2023/01/04 04:23:40;;;;;;;;;;;;;;;8.21;58.48;101779.91;5386424;32;35487;-68
2023/01/04 04:26:42;;;;;;;;;;;;;;;8.02;59.54;101787.91;5413419;32;34446;-66
2023/01/04 04:29:43;;;;;;;;;;;;;;;7.85;59.76;101784.50;5390584;32;35853;-67
2023/01/04 04:32:45;;;;;;;;;;;;;;;8.27;58.67;101795.59;5412721;32;35555;-87
2023/01/04 04:35:51;;;;;;;;;;;;;;;8.33;58.67;101791.19;5397070;32;44290;-68
2023/01/04 04:38:52;;;;;;;;;;;;;;;8.58;57.98;101789.25;5391066;32;34637;-89
2023/01/04 04:41:54;;;;;;;;;;;;;;;8.57;58.43;101805.00;5418007;32;35503;-68
2023/01/04 04:44:56;;;;;;;;;;;;;;;8.61;57.95;101802.31;5391156;32;34721;-66
2023/01/04 04:47:58;;;;;;;;;;;;;;;8.58;57.88;101797.13;5411520;32;34918;-67
2023/01/04 04:51:00;;;;;;;;;;;;;;;8.15;59.67;101802.66;5381344;32;34950;-67
2023/01/04 04:54:02;;;;;;;;;;;;;;;8.07;60.83;101801.84;5397615;32;37199;-67
2023/01/04 04:57:05;;;;;;;;;;;;;;;8.28;60.26;101808.66;5400247;32;34924;-89
2023/01/04 05:00:07;;;;;;;;;;;;;;;8.35;59.48;101809.50;5391680;32;34813;-91
2023/01/04 05:03:09;;;;;;;;;;;;;;;8.09;60.63;101805.31;5412776;32;34863;-67
2023/01/04 05:06:11;;;;;;;;;;;;;;;8.47;59.30;101812.06;5400954;32;34953;-67
2023/01/04 05:09:13;;;;;;;;;;;;;;;7.80;61.45;101809.84;5414933;32;35236;-89
2023/01/04 05:15:36;;;;;;;;;;;;;;;8.22;61.07;101819.19;5396029;32;34346;-67
2023/01/04 05:18:38;;;;;;;;;;;;;;;7.92;61.89;101816.75;5401979;32;36071;-66
2023/01/04 05:21:40;;;;;;;;;;;;;;;7.77;62.56;101815.09;5397300;32;34820;-88
2023/01/04 05:24:42;;;;;;;;;;;;;;;7.87;62.59;101816.78;5411503;32;35582;-67
2023/01/04 05:27:44;;;;;;;;;;;;;;;7.33;64.24;101818.75;5397361;32;34698;-88
2023/01/04 05:30:50;;;;;;;;;;;;;;;7.17;65.73;101822.28;5411794;32;35235;-90
2023/01/04 05:33:52;;;;;;;;;;;;;;;7.67;63.60;101816.87;5393985;32;45440;-89
2023/01/04 05:36:54;;;;;;;;;;;;;;;7.39;65.02;101825.69;5395512;32;35294;-67
2023/01/04 05:39:56;;;;;;;;;;;;;;;6.77;66.11;101825.81;5409495;32;34719;-91
2023/01/04 05:42:57;;;;;;;;;;;;;;;7.88;63.11;101824.62;5400716;32;35273;-78
2023/01/04 05:45:59;;;;;;;;;;;;;;;7.12;65.70;101826.66;5411294;32;34257;-90
2023/01/04 05:49:01;;;;;;;;;;;;;;;7.58;64.04;101833.47;5396668;32;35482;-77
2023/01/04 05:52:03;;;;;;;;;;;;;;;7.69;63.62;101832.59;5396554;32;34822;-67
2023/01/04 05:55:05;;;;;;;;;;;;;;;7.12;65.97;101837.97;5398107;32;35210;-67
2023/01/04 05:58:07;;;;;;;;;;;;;;;6.79;66.96;101838.88;5402532;32;35512;-75
2023/01/04 06:01:09;;;;;;;;;;;;;;;7.75;63.91;101829.94;5408703;32;35238;-67
2023/01/04 06:04:11;;;;;;;;;;;;;;;7.25;65.56;101831.84;5396565;32;35532;-91
2023/01/04 06:07:13;;;;;;;;;;;;;;;7.56;65.17;101843.09;5397825;32;35826;-88
2023/01/04 06:10:15;;;;;;;;;;;;;;;7.55;64.69;101843.97;5394120;32;35447;-68
2023/01/04 06:13:18;;;;;;;;;;;;;;;8.02;62.96;101842.88;5407731;32;46983;-88
2023/01/04 06:16:20;;;;;;;;;;;;;;;8.27;61.71;101832.25;5396776;32;35082;-67
2023/01/04 06:19:22;;;;;;;;;;;;;;;8.08;61.76;101827.13;5398249;32;34748;-89
2023/01/04 06:22:25;;;;;;;;;;;;;;;7.93;62.79;101842.94;5410903;32;34244;-68
2023/01/04 06:25:27;;;;;;;;;;;;;;;8.18;61.70;101854.16;5397265;32;35467;-90
2023/01/04 06:28:29;;;;;;;;;;;;;;;7.37;64.19;101854.47;5409404;32;34729;-67
2023/01/04 06:31:39;;;;;;;;;;;;;;;7.77;62.66;101862.19;5397062;32;34756;-75
2023/01/04 06:34:41;;;;;;;;;;;;;;;7.18;65.70;101861.50;5398407;32;34775;-68
2023/01/04 06:37:43;;;;;;;;;;;;;;;7.27;64.77;101860.59;5384860;32;35337;-91
2023/01/04 06:40:45;;;;;;;;;;;;;;;7.15;65.60;101865.84;5391782;32;35329;-67
2023/01/04 06:43:47;;;;;;;;;;;;;;;7.70;63.79;101863.09;5413247;32;44448;-67
2023/01/04 06:46:48;;;;;;;;;;;;;;;7.49;64.07;101856.19;5398071;32;35525;-67
2023/01/04 06:49:50;;;;;;;;;;;;;;;7.13;65.83;101852.78;5411788;32;34236;-68
2023/01/04 06:52:52;;;;;;;;;;;;;;;6.77;67.20;101869.38;5378255;32;35474;-89
2023/01/04 06:55:54;;;;;;;;;;;;;;;6.61;68.63;101871.09;5412246;32;34655;-69
2023/01/04 06:58:56;;;;;;;;;;;;;;;7.36;66.21;101855.38;5401120;32;35478;-68
2023/01/04 07:01:58;;;;;;;;;;;;;;;7.57;64.22;101863.13;5399034;32;34138;-90
2023/01/04 07:05:00;;;;;;;;;;;;;;;6.61;67.79;101872.84;5416455;32;34617;-90
2023/01/04 07:08:03;;;;;;;;;;;;;;;6.90;67.37;101865.91;5400747;32;35629;-90
2023/01/04 07:11:09;;;;;;;;;;;;;;;6.62;68.41;101870.22;5414972;32;35709;-90
2023/01/04 07:14:11;;;;;;;;;;;;;;;6.60;68.83;101876.34;5402239;32;35165;-90
2023/01/04 07:17:13;;;;;;;;;;;;;;;6.63;69.48;101890.25;5414486;32;34745;-89
2023/01/04 07:20:15;;;;;;;;;;;;;;;6.61;69.66;101892.00;5405018;32;34318;-67
2023/01/04 07:23:17;;;;;;;;;;;;;;;6.90;69.18;101888.56;5390546;32;44367;-68
2023/01/04 07:26:19;;;;;;;;;;;;;;;7.42;66.31;101888.50;5418498;32;34894;-90
2023/01/04 07:29:21;;;;;;;;;;;;;;;7.81;64.63;101885.75;5401398;32;35046;-66
2023/01/04 07:32:23;;;;;;;;;;;;;;;7.46;65.65;101877.13;5414950;32;35276;-67
2023/01/04 07:35:25;;;;;;;;;;;;;;;6.98;67.87;101869.38;5398075;32;34911;-68
2023/01/04 07:38:27;;;;;;;;;;;;;;;7.36;67.48;101857.97;5411723;32;34848;-77
2023/01/04 07:41:29;;;;;;;;;;;;;;;7.79;66.25;101870.91;5405554;32;35295;-69
2023/01/04 07:44:31;;;;;;;;;;;;;;;7.28;67.39;101878.06;5398909;32;36169;-90
2023/01/04 07:47:33;;;;;;;;;;;;;;;7.50;67.79;101874.50;5415925;32;34266;-67
2023/01/04 07:50:35;;;;;;;;;;;;;;;8.48;63.22;101863.56;5389023;32;34368;-67
2023/01/04 07:53:37;;;;;;;;;;;;;;;8.27;62.77;101874.19;5407522;32;34819;-68
2023/01/04 07:56:39;;;;;;;;;;;;;;;8.24;63.08;101884.66;5400523;32;35572;-90
2023/01/04 07:59:41;;;;;;;;;;;;;;;8.34;62.71;101886.34;5415828;32;35676;-67
2023/01/04 08:02:43;;;;;;;;;;;;;;;7.74;63.46;101875.31;5405786;32;34909;-67
2023/01/04 08:05:45;;;;;;;;;;;;;;;7.41;66.02;101895.47;5405106;32;35355;-89
2023/01/04 08:08:47;;;;;;;;;;;;;;;7.64;66.05;101891.91;5418508;32;44508;-90
2023/01/04 08:11:49;;;;;;;;;;;;;;;7.58;65.89;101891.03;5388305;32;35048;-89
2023/01/04 08:14:51;;;;;;;;;;;;;;;7.51;66.39;101897.16;5419138;32;34874;-90
2023/01/04 08:17:54;;;;;;;;;;;;;;;7.18;67.07;101898.09;5406586;32;34486;-77
2023/01/04 08:21:06;;;;;;;;;;;;;;;8.13;64.46;101880.38;5414168;32;34141;-87
2023/01/04 08:24:09;;;;;;;;;;;;;;;7.54;66.30;101878.88;5410726;32;35270;-67
2023/01/04 08:27:11;;;;;;;;;;;;;;;8.08;63.53;101871.66;5406419;32;35049;-68
2023/01/04 08:30:13;;;;;;;;;;;;;;;8.44;62.22;101866.22;5417773;32;35655;-68
2023/01/04 08:33:15;;;;;;;;;;;;;;;7.57;65.02;101868.38;5404808;32;34668;-90
2023/01/04 08:36:20;;;;;;;;;;;;;;;8.40;63.08;101870.63;5422390;32;45225;-90
2023/01/04 08:39:28;;;;;;;;;;;;;;;8.28;62.89;101870.66;5408676;32;35389;-67
2023/01/04 08:42:30;;;;;;;;;;;;;;;8.73;61.29;101866.91;5405292;32;34848;-67
2023/01/04 08:45:33;;;;;;;;;;;;;;;9.17;60.19;101866.50;5418070;32;34659;-90
2023/01/04 08:48:35;;;;;;;;;;;;;;;9.49;58.67;101876.66;5407919;32;34466;-67
2023/01/04 08:51:37;;;;;;;;;;;;;;;8.82;60.20;101865.94;5398598;32;34868;-68
2023/01/04 08:54:39;;;;;;;;;;;;;;;9.15;59.84;101868.28;5402928;32;34426;-91
2023/01/04 08:57:41;;;;;;;;;;;;;;;9.14;59.67;101873.50;5423263;32;35610;-90
2023/01/04 09:00:43;;;;;;;;;;;;;;;9.57;58.91;101873.09;5403006;32;34968;-67
2023/01/04 09:03:45;;;;;;;;;;;;;;;9.89;57.57;101880.56;5411394;32;34950;-91
2023/01/04 09:06:47;;;;;;;;;;;;;;;10.00;57.28;101879.56;5420981;32;44637;-68
2023/01/04 09:09:48;;;;;;;;;;;;;;;10.03;57.20;101878.63;5393237;32;35535;-90
2023/01/04 09:12:50;;;;;;;;;;;;;;;10.03;57.12;101876.88;5422901;32;35234;-85
2023/01/04 09:15:52;;;;;;;;;;;;;;;9.41;59.22;101875.88;5360718;32;962108;-68
2023/01/04 09:18:55;;;;;;;;;;;;;;;9.72;58.33;101872.91;5406093;32;34696;-89
2023/01/04 09:21:57;;;;;;;;;;;;;;;9.60;58.37;101866.06;5401981;32;35658;-68
2023/01/04 09:24:59;;;;;;;;;;;;;;;9.58;58.96;101862.56;5404264;32;34339;-89
2023/01/04 09:28:01;;;;;;;;;;;;;;;9.47;59.71;101867.94;5420852;32;34450;-89
2023/01/04 09:31:10;;;;;;;;;;;;;;;10.01;58.18;101856.78;5409121;32;34682;-89
2023/01/04 09:34:12;;;;;;;;;;;;;;;9.16;59.99;101849.03;5416475;32;34172;-91
2023/01/04 09:37:17;;;;;;;;;;;;;;;9.26;60.84;101848.94;5403532;32;44332;-68
2023/01/04 09:40:21;;;;;;;;;;;;;;;9.42;59.90;101834.75;5418680;32;35504;-89
2023/01/04 09:43:23;;;;;;;;;;;;;;;10.25;57.23;101839.84;5404507;32;35487;-68
2023/01/04 09:46:43;;;;;;;;;;;;;;;10.45;56.17;101836.91;5406514;32;35516;-67
2023/01/04 09:49:47;;;;;;;;;;;;;;;10.51;55.86;101837.69;5419749;32;35658;-88
2023/01/04 09:53:12;;;;;;;;;;;;;;;10.28;56.66;101831.91;5384021;32;46222;-67
2023/01/04 09:56:22;;;;;;;;;;;;;;;9.90;56.62;101814.91;5412514;32;34903;-68
2023/01/04 09:59:33;;;;;;;;;;;;;;;9.60;57.60;101818.81;5398928;32;45251;-68
2023/01/04 10:02:39;;;;;;;;;;;;;;;10.44;55.86;101808.91;5391839;32;35452;-68
2023/01/04 10:05:41;;;;;;;;;;;;;;;11.11;53.75;101799.81;5418628;32;34341;-69
2023/01/04 10:08:43;;;;;;;;;;;;;;;10.27;55.77;101810.03;5404618;32;35626;-68
2023/01/04 10:12:24;;;;;;;;;;;;;;;10.50;54.78;101801.78;5415855;32;34776;-90
2023/01/04 10:15:30;;;;;;;;;;;;;;;10.49;54.58;101802.66;5335715;32;34906;-69
2023/01/04 10:18:35;;;;;;;;;;;;;;;11.14;53.32;101786.59;5324220;32;34488;-90
2023/01/04 10:22:09;;;;;;;;;;;;;;;10.61;54.72;101780.56;5414515;32;34594;-92
2023/01/04 10:25:13;;;;;;;;;;;;;;;10.43;54.37;101791.38;5406784;32;34758;-90
2023/01/04 10:28:21;;;;;;;;;;;;;;;11.03;53.05;101780.69;5412967;32;34033;-68
2023/01/04 10:31:28;;;;;;;;;;;;;;;10.46;53.91;101786.94;5414164;32;44565;-76
2023/01/04 10:34:43;;;;;;;;;;;;;;;10.57;54.07;101774.50;5398030;32;34819;-91
2023/01/04 10:37:45;;;;;;;;;;;;;;;11.15;52.48;101769.94;5413088;32;35686;-90
2023/01/04 10:40:47;;;;;;;;;;;;;;;11.43;51.37;101764.12;5393706;32;44721;-69
2023/01/04 10:44:01;;;;;;;;;;;;;;;11.59;51.51;101762.88;5417272;32;34739;-67
2023/01/04 10:47:17;;;;;;;;;;;;;;;12.23;49.50;101756.16;5408876;32;34402;-68
2023/01/04 10:50:38;;;;;;;;;;;;;;;12.01;49.72;101760.22;5402173;32;46243;-91
2023/01/04 10:53:48;;;;;;;;;;;;;;;11.91;50.24;101760.47;5395165;32;34894;-88
2023/01/04 10:56:51;;;;;;;;;;;;;;;11.27;52.49;101748.66;5406220;32;44394;-68
2023/01/04 11:00:00;;;;;;;;;;;;;;;10.83;54.43;101747.75;5414254;32;35974;-73
2023/01/04 11:03:05;;;;;;;;;;;;;;;11.68;52.16;101741.63;5391737;32;35823;-90
2023/01/04 11:06:30;;;;;;;;;;;;;;;11.95;51.68;101744.56;5407018;32;34746;-88
2023/01/04 11:09:34;;;;;;;;;;;;;;;10.87;54.35;101730.12;5404053;32;34678;-68
2023/01/04 11:12:36;;;;;;;;;;;;;;;11.32;54.05;101728.34;5391710;32;35402;-89
2023/01/04 11:15:38;;;;;;;;;;;;;;;11.95;52.92;101721.72;5408159;32;34146;-69
2023/01/04 11:18:40;;;;;;;;;;;;;;;11.75;52.92;101714.25;5407893;32;35599;-89
2023/01/04 11:21:43;;;;;;;;;;;;;;;12.59;51.75;101706.06;5388216;32;35102;-67
2023/01/04 11:24:46;;;;;;;;;;;;;;;12.16;53.55;101707.16;5398760;32;35353;-67
2023/01/04 11:28:12;;;;;;;;;;;;;;;13.57;48.34;101703.28;5403193;32;35985;-89
2023/01/04 11:31:21;;;;;;;;;;;;;;;12.88;49.41;101697.34;5416734;32;34246;-68
2023/01/04 11:34:42;;;;;;;;;;;;;;;13.38;48.12;101688.00;5395619;32;45031;-88
2023/01/04 11:37:43;;;;;;;;;;;;;;;13.79;47.74;101672.66;5385195;32;34849;-68
2023/01/04 11:41:06;;;;;;;;;;;;;;;13.82;46.78;101669.91;5405493;32;34351;-68
2023/01/04 11:44:08;;;;;;;;;;;;;;;15.66;42.29;101670.38;5402817;32;34533;-90
2023/01/04 11:47:13;;;;;;;;;;;;;;;17.78;36.94;101656.59;5417936;32;35169;-91
2023/01/04 11:50:39;;;;;;;;;;;;;;;14.81;42.49;101666.53;5399869;32;35434;-87
2023/01/04 11:53:41;;;;;;;;;;;;;;;14.66;43.84;101666.22;5388092;32;34899;-89
2023/01/04 11:57:02;;;;;;;;;;;;;;;16.14;40.32;101648.06;5419886;32;34692;-68
2023/01/04 12:00:15;;;;;;;;;;;;;;;17.06;38.19;101639.56;5409215;32;34782;-87
2023/01/04 12:03:19;;;;;;;;;;;;;;;16.68;37.50;101632.47;5417554;32;44693;-70
2023/01/04 12:06:24;;;;;;;;;;;;;;;16.56;37.15;101635.69;5406809;32;35501;-88
2023/01/04 12:09:27;;;;;;;;;;;;;;;18.13;35.83;101623.75;5406813;32;35261;-88
2023/01/04 12:12:31;;;;;;;;;;;;;;;19.75;32.24;101622.09;5406603;32;35298;-88
2023/01/04 12:15:35;;;;;;;;;;;;;;;21.74;29.30;101615.97;5388807;32;34695;-89
2023/01/04 12:18:41;;;;;;;;;;;;;;;23.73;25.81;101605.47;5408477;32;34369;-68
2023/01/04 12:21:44;;;;;;;;;;;;;;;23.80;25.77;101607.69;5393390;32;35087;-68
2023/01/04 12:24:45;;;;;;;;;;;;;;;26.87;22.27;101596.81;5413858;32;35262;-87
2023/01/04 12:27:48;;;;;;;;;;;;;;;25.65;22.46;101599.25;5412904;32;45620;-87
2023/01/04 12:30:50;;;;;;;;;;;;;;;23.94;23.99;101594.94;5404953;32;34848;-70
2023/01/04 12:33:54;;;;;;;;;;;;;;;24.40;23.81;101579.81;5406077;32;34554;-69
2023/01/04 12:37:00;;;;;;;;;;;;;;;24.40;23.73;101577.13;5398630;32;34972;-69
2023/01/04 12:40:25;;;;;;;;;;;;;;;24.17;23.34;101581.59;5422865;32;35308;-67
2023/01/04 12:43:28;;;;;;;;;;;;;;;25.55;22.60;101572.22;5409681;32;35283;-69
2023/01/04 12:49:51;;;;;;;;;;;;;;;22.56;25.83;101573.81;5420306;32;44543;-68
2023/01/04 12:52:57;;;;;;;;;;;;;;;22.04;26.99;101564.88;5384651;32;34467;-89
2023/01/04 12:56:19;;;;;;;;;;;;;;;21.70;26.69;101558.25;5408020;32;45044;-91
2023/01/04 12:59:52;;;;;;;;;;;;;;;23.63;24.33;101542.72;5410081;32;34328;-89
2023/01/04 13:03:12;;;;;;;;;;;;;;;21.51;27.03;101558.66;5401415;32;45736;-69
2023/01/04 13:06:14;;;;;;;;;;;;;;;18.93;30.51;101560.97;5420335;32;34714;-68
2023/01/04 13:09:18;;;;;;;;;;;;;;;22.21;26.46;101552.16;5405765;32;42957;-89
2023/01/04 13:12:43;;;;;;;;;;;;;;;23.57;24.30;101545.87;5413924;32;34779;-69
2023/01/04 13:15:45;;;;;;;;;;;;;;;20.90;27.58;101541.22;5418225;32;35602;-69
2023/01/04 13:18:47;;;;;;;;;;;;;;;19.66;29.25;101535.50;5404335;32;47299;-68
2023/01/04 13:21:50;;;;;;;;;;;;;;;19.23;30.13;101536.22;5420488;32;34824;-69
2023/01/04 13:24:52;;;;;;;;;;;;;;;17.58;33.13;101541.44;5401630;32;36116;-68
2023/01/04 13:27:58;;;;;;;;;;;;;;;16.66;35.12;101557.34;5420339;32;34961;-90
2023/01/04 13:31:00;;;;;;;;;;;;;;;17.62;34.14;101536.81;5411146;32;36075;-68
2023/01/04 13:34:03;;;;;;;;;;;;;;;14.98;38.62;101551.22;5402123;32;35726;-68
2023/01/04 13:37:06;;;;;;;;;;;;;;;14.55;40.39;101551.03;5413673;32;35111;-88
2023/01/04 13:40:14;;;;;;;;;;;;;;;15.55;38.36;101534.75;5393402;32;34284;-68
2023/01/04 13:43:25;;;;;;;;;;;;;;;15.32;38.57;101534.84;5420670;32;34192;-68
2023/01/04 13:46:27;;;;;;;;;;;;;;;14.32;41.28;101543.06;5401881;32;34754;-68
2023/01/04 13:49:29;;;;;;;;;;;;;;;15.06;39.79;101535.88;5399724;32;35006;-89
2023/01/04 13:52:31;;;;;;;;;;;;;;;13.36;42.94;101541.09;5391670;32;35387;-75
2023/01/04 13:55:54;;;;;;;;;;;;;;;14.27;42.02;101537.09;5395552;32;47717;-70
2023/01/04 13:58:56;;;;;;;;;;;;;;;12.28;50.04;101550.47;5416632;32;35378;-88
2023/01/04 14:01:57;;;;;;;;;;;;;;;13.23;48.89;101535.34;5403626;32;34812;-90
2023/01/04 14:05:00;;;;;;;;;;;;;;;13.16;50.19;101534.66;5412842;32;36117;-89
2023/01/04 14:08:02;;;;;;;;;;;;;;;13.76;49.15;101527.44;5407192;32;34398;-67
2023/01/04 14:11:10;;;;;;;;;;;;;;;14.67;46.13;101527.69;5391667;32;34461;-90
2023/01/04 14:14:15;;;;;;;;;;;;;;;15.05;44.93;101527.06;5419310;32;35013;-89
2023/01/04 14:17:31;;;;;;;;;;;;;;;15.32;43.81;101524.25;5403096;32;44454;-68
2023/01/04 14:20:34;;;;;;;;;;;;;;;14.47;45.62;101531.97;5420482;32;36958;-68
2023/01/04 14:23:37;;;;;;;;;;;;;;;14.04;45.05;101530.00;5406719;32;34248;-69
2023/01/04 14:26:40;;;;;;;;;;;;;;;13.75;45.63;101533.62;5413507;32;35875;-68
2023/01/04 14:29:42;;;;;;;;;;;;;;;13.68;45.48;101521.53;5412673;32;35156;-67
2023/01/04 14:32:58;;;;;;;;;;;;;;;12.80;47.38;101535.78;5398192;32;34786;-90
2023/01/04 14:36:20;;;;;;;;;;;;;;;12.75;48.33;101522.72;5418865;32;34796;-76
2023/01/04 14:39:23;;;;;;;;;;;;;;;12.21;50.65;101528.69;5390916;32;46369;-67
2023/01/04 14:42:26;;;;;;;;;;;;;;;12.46;50.48;101527.09;5416825;32;35398;-68
2023/01/04 14:45:28;;;;;;;;;;;;;;;11.88;52.44;101518.16;5397865;32;35513;-77
2023/01/04 14:48:30;;;;;;;;;;;;;;;11.26;53.85;101524.94;5397619;32;35502;-67
2023/01/04 14:51:33;;;;;;;;;;;;;;;11.20;54.68;101519.84;5399734;32;35388;-77
2023/01/04 14:54:37;;;;;;;;;;;;;;;11.10;55.24;101522.69;5416171;32;34296;-67
2023/01/04 14:57:42;;;;;;;;;;;;;;;10.87;56.44;101521.47;5418615;32;35545;-90
2023/01/04 15:00:44;;;;;;;;;;;;;;;10.93;56.83;101513.44;5408980;32;36140;-89
2023/01/04 15:03:45;;;;;;;;;;;;;;;11.10;56.58;101512.16;5411789;32;34944;-69
2023/01/04 15:06:49;;;;;;;;;;;;;;;10.86;58.19;101512.72;5392815;32;44854;-89
2023/01/04 15:09:51;;;;;;;;;;;;;;;10.44;60.14;101509.28;5407547;32;34463;-67
2023/01/04 15:12:53;;;;;;;;;;;;;;;10.40;61.45;101502.34;5424142;32;34856;-91
2023/01/04 15:15:56;;;;;;;;;;;;;;;10.63;61.09;101510.63;5402518;32;34974;-67
2023/01/04 15:18:58;;;;;;;;;;;;;;;11.16;60.11;101498.00;5418356;32;34618;-69
2023/01/04 15:22:00;;;;;;;;;;;;;;;10.62;62.08;101508.84;5403809;32;35215;-68
2023/01/04 15:25:02;;;;;;;;;;;;;;;10.91;61.38;101502.09;5405949;32;35494;-68
2023/01/04 15:28:04;;;;;;;;;;;;;;;10.67;62.46;101507.00;5416007;32;34913;-90
2023/01/04 15:31:09;;;;;;;;;;;;;;;9.76;65.84;101499.16;5401668;32;34801;-67
2023/01/04 15:34:11;;;;;;;;;;;;;;;9.47;67.75;101508.41;5414217;32;35461;-67
2023/01/04 15:37:16;;;;;;;;;;;;;;;9.88;66.29;101505.94;5401267;32;34398;-67
2023/01/04 15:40:24;;;;;;;;;;;;;;;9.59;68.62;101493.31;5418824;32;44593;-76
2023/01/04 15:43:26;;;;;;;;;;;;;;;10.31;65.92;101471.88;5394318;32;35104;-76
2023/01/04 15:46:36;;;;;;;;;;;;;;;10.18;66.20;101483.50;5407071;32;34810;-89
2023/01/04 15:49:38;;;;;;;;;;;;;;;10.41;66.07;101483.03;5418090;32;35445;-91
2023/01/04 15:52:40;;;;;;;;;;;;;;;10.25;66.15;101475.47;5383981;32;34977;-90
2023/01/04 15:55:42;;;;;;;;;;;;;;;9.39;69.50;101472.69;5421237;32;35371;-88
2023/01/04 15:58:44;;;;;;;;;;;;;;;9.03;72.30;101482.88;5406285;32;34572;-68
2023/01/04 16:01:46;;;;;;;;;;;;;;;9.24;71.33;101471.19;5419052;32;44199;-92
2023/01/04 16:04:49;;;;;;;;;;;;;;;9.26;72.08;101465.91;5399002;32;35791;-92
2023/01/04 16:07:51;;;;;;;;;;;;;;;8.97;71.79;101469.88;5404232;32;34782;-92
2023/01/04 16:10:53;;;;;;;;;;;;;;;8.75;73.14;101468.44;5407040;32;36135;-67
2023/01/04 16:13:55;;;;;;;;;;;;;;;8.58;74.40;101471.31;5403365;32;34672;-68
2023/01/04 16:16:57;;;;;;;;;;;;;;;8.09;76.47;101472.75;5420054;32;34960;-68
2023/01/04 16:19:59;;;;;;;;;;;;;;;8.37;76.93;101469.81;5400565;32;35534;-69
2023/01/04 16:23:01;;;;;;;;;;;;;;;8.45;74.77;101468.00;5415650;32;34311;-90
2023/01/04 16:26:04;;;;;;;;;;;;;;;8.21;77.17;101470.87;5405365;32;35062;-75
2023/01/04 16:29:07;;;;;;;;;;;;;;;8.21;76.55;101465.62;5401772;32;35092;-85
2023/01/04 16:32:09;;;;;;;;;;;;;;;8.85;74.04;101455.19;5404843;32;34531;-69
2023/01/04 16:35:11;;;;;;;;;;;;;;;8.25;76.54;101457.72;5396906;32;35017;-67
2023/01/04 16:38:13;;;;;;;;;;;;;;;8.58;75.86;101450.34;5421264;32;35236;-90